sensor_id;sensor_type;location;lat;lon;timestamp;P1;durP1;ratioP1;P2;durP2;ratioP2
19778;SDS011;10049;59.306;18.090;2023-04-25T00:00:26;0.50;;;0.50;;
19778;SDS011;10049;59.306;18.090;2023-04-25T00:02:55;1.48;;;0.80;;
19778;SDS011;10049;59.306;18.090;2023-04-25T00:05:24;0.98;;;0.60;;
19778;SDS011;10049;59.306;18.090;2023-04-25T00:07:54;1.55;;;0.80;;
19778;SDS011;10049;59.306;18.090;2023-04-25T00:10:22;1.30;;;1.00;;
19778;SDS011;10049;59.306;18.090;2023-04-25T00:12:49;0.50;;;0.50;;
19778;SDS011;10049;59.306;18.090;2023-04-25T00:15:27;0.80;;;0.67;;
19778;SDS011;10049;59.306;18.090;2023-04-25T00:17:56;1.77;;;1.27;;
19778;SDS011;10049;59.306;18.090;2023-04-25T00:20:23;0.50;;;0.50;;
19778;SDS011;10049;59.306;18.090;2023-04-25T00:22:51;1.80;;;1.03;;
19778;SDS011;10049;59.306;18.090;2023-04-25T00:25:20;0.57;;;0.57;;
19778;SDS011;10049;59.306;18.090;2023-04-25T00:27:48;1.17;;;0.73;;
19778;SDS011;10049;59.306;18.090;2023-04-25T00:30:16;1.20;;;0.87;;
19778;SDS011;10049;59.306;18.090;2023-04-25T00:32:43;0.47;;;0.43;;
19778;SDS011;10049;59.306;18.090;2023-04-25T00:35:11;1.17;;;0.83;;
19778;SDS011;10049;59.306;18.090;2023-04-25T00:37:38;0.50;;;0.50;;
19778;SDS011;10049;59.306;18.090;2023-04-25T00:40:06;0.53;;;0.50;;
19778;SDS011;10049;59.306;18.090;2023-04-25T00:42:36;0.50;;;0.50;;
19778;SDS011;10049;59.306;18.090;2023-04-25T00:45:05;1.17;;;0.97;;
19778;SDS011;10049;59.306;18.090;2023-04-25T00:47:33;0.60;;;0.60;;
19778;SDS011;10049;59.306;18.090;2023-04-25T00:50:04;0.60;;;0.60;;
19778;SDS011;10049;59.306;18.090;2023-04-25T00:52:31;0.47;;;0.47;;
19778;SDS011;10049;59.306;18.090;2023-04-25T00:54:59;0.83;;;0.40;;
19778;SDS011;10049;59.306;18.090;2023-04-25T00:57:27;1.87;;;1.10;;
19778;SDS011;10049;59.306;18.090;2023-04-25T00:59:56;0.57;;;0.57;;
19778;SDS011;10049;59.306;18.090;2023-04-25T01:02:25;0.73;;;0.73;;
19778;SDS011;10049;59.306;18.090;2023-04-25T01:04:53;1.23;;;0.80;;
19778;SDS011;10049;59.306;18.090;2023-04-25T01:07:20;0.60;;;0.60;;
19778;SDS011;10049;59.306;18.090;2023-04-25T01:09:48;0.82;;;0.82;;
19778;SDS011;10049;59.306;18.090;2023-04-25T01:12:15;1.90;;;0.50;;
19778;SDS011;10049;59.306;18.090;2023-04-25T01:14:43;0.60;;;0.60;;
19778;SDS011;10049;59.306;18.090;2023-04-25T01:17:12;1.08;;;0.50;;
19778;SDS011;10049;59.306;18.090;2023-04-25T01:19:40;0.30;;;0.30;;
19778;SDS011;10049;59.306;18.090;2023-04-25T01:22:08;0.70;;;0.65;;
19778;SDS011;10049;59.306;18.090;2023-04-25T01:24:36;1.60;;;0.67;;
19778;SDS011;10049;59.306;18.090;2023-04-25T01:27:05;2.17;;;0.73;;
19778;SDS011;10049;59.306;18.090;2023-04-25T01:29:33;0.50;;;0.45;;
19778;SDS011;10049;59.306;18.090;2023-04-25T01:32:02;0.40;;;0.40;;
19778;SDS011;10049;59.306;18.090;2023-04-25T01:34:29;0.60;;;0.60;;
19778;SDS011;10049;59.306;18.090;2023-04-25T01:36:57;0.40;;;0.40;;
19778;SDS011;10049;59.306;18.090;2023-04-25T01:39:28;1.60;;;0.60;;
19778;SDS011;10049;59.306;18.090;2023-04-25T01:41:59;0.30;;;0.30;;
19778;SDS011;10049;59.306;18.090;2023-04-25T01:44:26;0.50;;;0.40;;
19778;SDS011;10049;59.306;18.090;2023-04-25T01:46:54;1.60;;;0.80;;
19778;SDS011;10049;59.306;18.090;2023-04-25T01:49:21;0.80;;;0.80;;
19778;SDS011;10049;59.306;18.090;2023-04-25T01:51:49;1.45;;;0.90;;
19778;SDS011;10049;59.306;18.090;2023-04-25T01:54:16;0.60;;;0.60;;
19778;SDS011;10049;59.306;18.090;2023-04-25T01:56:49;0.40;;;0.40;;
19778;SDS011;10049;59.306;18.090;2023-04-25T01:59:18;0.70;;;0.60;;
19778;SDS011;10049;59.306;18.090;2023-04-25T02:01:48;0.70;;;0.70;;
19778;SDS011;10049;59.306;18.090;2023-04-25T02:04:16;0.32;;;0.32;;
19778;SDS011;10049;59.306;18.090;2023-04-25T02:06:43;0.90;;;0.50;;
19778;SDS011;10049;59.306;18.090;2023-04-25T02:09:11;0.30;;;0.30;;
19778;SDS011;10049;59.306;18.090;2023-04-25T02:11:43;1.53;;;0.40;;
19778;SDS011;10049;59.306;18.090;2023-04-25T02:14:12;0.37;;;0.30;;
19778;SDS011;10049;59.306;18.090;2023-04-25T02:16:40;0.63;;;0.50;;
19778;SDS011;10049;59.306;18.090;2023-04-25T02:19:08;0.57;;;0.50;;
19778;SDS011;10049;59.306;18.090;2023-04-25T02:21:36;0.30;;;0.30;;
19778;SDS011;10049;59.306;18.090;2023-04-25T02:24:04;0.37;;;0.37;;
19778;SDS011;10049;59.306;18.090;2023-04-25T02:26:32;0.33;;;0.30;;
19778;SDS011;10049;59.306;18.090;2023-04-25T02:29:00;0.77;;;0.30;;
19778;SDS011;10049;59.306;18.090;2023-04-25T02:31:29;0.40;;;0.40;;
19778;SDS011;10049;59.306;18.090;2023-04-25T02:33:57;0.97;;;0.37;;
19778;SDS011;10049;59.306;18.090;2023-04-25T02:36:24;0.30;;;0.30;;
19778;SDS011;10049;59.306;18.090;2023-04-25T02:38:51;0.30;;;0.30;;
19778;SDS011;10049;59.306;18.090;2023-04-25T02:41:19;0.43;;;0.33;;
19778;SDS011;10049;59.306;18.090;2023-04-25T02:43:46;0.30;;;0.30;;
19778;SDS011;10049;59.306;18.090;2023-04-25T02:46:14;0.60;;;0.40;;
19778;SDS011;10049;59.306;18.090;2023-04-25T02:48:43;0.30;;;0.30;;
19778;SDS011;10049;59.306;18.090;2023-04-25T02:51:11;0.20;;;0.20;;
19778;SDS011;10049;59.306;18.090;2023-04-25T02:53:39;0.40;;;0.40;;
19778;SDS011;10049;59.306;18.090;2023-04-25T02:56:06;0.50;;;0.50;;
19778;SDS011;10049;59.306;18.090;2023-04-25T02:58:34;0.23;;;0.23;;
19778;SDS011;10049;59.306;18.090;2023-04-25T03:01:01;0.83;;;0.60;;
19778;SDS011;10049;59.306;18.090;2023-04-25T03:03:29;0.30;;;0.30;;
19778;SDS011;10049;59.306;18.090;2023-04-25T03:05:58;0.27;;;0.27;;
19778;SDS011;10049;59.306;18.090;2023-04-25T03:08:25;0.20;;;0.20;;
19778;SDS011;10049;59.306;18.090;2023-04-25T03:10:57;0.20;;;0.20;;
19778;SDS011;10049;59.306;18.090;2023-04-25T03:13:25;0.40;;;0.40;;
19778;SDS011;10049;59.306;18.090;2023-04-25T03:15:54;0.30;;;0.30;;
19778;SDS011;10049;59.306;18.090;2023-04-25T03:18:22;0.20;;;0.20;;
19778;SDS011;10049;59.306;18.090;2023-04-25T03:20:49;0.30;;;0.30;;
19778;SDS011;10049;59.306;18.090;2023-04-25T03:23:19;0.30;;;0.30;;
19778;SDS011;10049;59.306;18.090;2023-04-25T03:25:46;0.27;;;0.27;;
19778;SDS011;10049;59.306;18.090;2023-04-25T03:28:17;0.30;;;0.30;;
19778;SDS011;10049;59.306;18.090;2023-04-25T03:30:45;0.20;;;0.20;;
19778;SDS011;10049;59.306;18.090;2023-04-25T03:33:12;0.30;;;0.30;;
19778;SDS011;10049;59.306;18.090;2023-04-25T03:35:42;0.20;;;0.20;;
19778;SDS011;10049;59.306;18.090;2023-04-25T03:38:09;0.30;;;0.30;;
19778;SDS011;10049;59.306;18.090;2023-04-25T03:40:38;0.30;;;0.30;;
19778;SDS011;10049;59.306;18.090;2023-04-25T03:43:06;0.40;;;0.40;;
19778;SDS011;10049;59.306;18.090;2023-04-25T03:45:33;0.30;;;0.30;;
19778;SDS011;10049;59.306;18.090;2023-04-25T03:48:01;0.30;;;0.30;;
19778;SDS011;10049;59.306;18.090;2023-04-25T03:50:28;0.40;;;0.40;;
19778;SDS011;10049;59.306;18.090;2023-04-25T03:52:56;0.20;;;0.20;;
19778;SDS011;10049;59.306;18.090;2023-04-25T03:55:23;0.40;;;0.40;;
19778;SDS011;10049;59.306;18.090;2023-04-25T03:57:52;0.40;;;0.40;;
19778;SDS011;10049;59.306;18.090;2023-04-25T04:00:20;0.40;;;0.37;;
19778;SDS011;10049;59.306;18.090;2023-04-25T04:02:48;0.80;;;0.53;;
19778;SDS011;10049;59.306;18.090;2023-04-25T04:05:15;0.33;;;0.33;;
19778;SDS011;10049;59.306;18.090;2023-04-25T04:07:43;0.40;;;0.30;;
19778;SDS011;10049;59.306;18.090;2023-04-25T04:10:10;2.13;;;0.93;;
19778;SDS011;10049;59.306;18.090;2023-04-25T04:12:38;0.60;;;0.57;;
19778;SDS011;10049;59.306;18.090;2023-04-25T04:15:07;0.80;;;0.65;;
19778;SDS011;10049;59.306;18.090;2023-04-25T04:17:35;0.50;;;0.50;;
19778;SDS011;10049;59.306;18.090;2023-04-25T04:20:03;0.40;;;0.40;;
19778;SDS011;10049;59.306;18.090;2023-04-25T04:22:31;1.30;;;0.60;;
19778;SDS011;10049;59.306;18.090;2023-04-25T04:24:58;0.63;;;0.37;;
19778;SDS011;10049;59.306;18.090;2023-04-25T04:27:26;0.40;;;0.40;;
19778;SDS011;10049;59.306;18.090;2023-04-25T04:29:54;0.40;;;0.40;;
19778;SDS011;10049;59.306;18.090;2023-04-25T04:32:24;0.63;;;0.60;;
19778;SDS011;10049;59.306;18.090;2023-04-25T04:34:53;0.60;;;0.60;;
19778;SDS011;10049;59.306;18.090;2023-04-25T04:37:21;0.30;;;0.30;;
19778;SDS011;10049;59.306;18.090;2023-04-25T04:39:49;1.23;;;0.70;;
19778;SDS011;10049;59.306;18.090;2023-04-25T04:42:17;0.53;;;0.53;;
19778;SDS011;10049;59.306;18.090;2023-04-25T04:44:44;1.00;;;0.90;;
19778;SDS011;10049;59.306;18.090;2023-04-25T04:47:12;2.83;;;0.80;;
19778;SDS011;10049;59.306;18.090;2023-04-25T04:49:42;0.70;;;0.70;;
19778;SDS011;10049;59.306;18.090;2023-04-25T04:52:12;0.77;;;0.70;;
19778;SDS011;10049;59.306;18.090;2023-04-25T04:54:44;1.23;;;0.63;;
19778;SDS011;10049;59.306;18.090;2023-04-25T04:57:11;1.75;;;0.70;;
19778;SDS011;10049;59.306;18.090;2023-04-25T04:59:39;0.77;;;0.77;;
19778;SDS011;10049;59.306;18.090;2023-04-25T05:02:06;1.00;;;0.90;;
19778;SDS011;10049;59.306;18.090;2023-04-25T05:04:35;1.73;;;1.00;;
19778;SDS011;10049;59.306;18.090;2023-04-25T05:07:04;0.50;;;0.50;;
19778;SDS011;10049;59.306;18.090;2023-04-25T05:09:32;1.00;;;0.90;;
19778;SDS011;10049;59.306;18.090;2023-04-25T05:11:59;0.83;;;0.60;;
19778;SDS011;10049;59.306;18.090;2023-04-25T05:14:27;1.75;;;1.10;;
19778;SDS011;10049;59.306;18.090;2023-04-25T05:16:54;1.30;;;1.10;;
19778;SDS011;10049;59.306;18.090;2023-04-25T05:19:23;1.47;;;1.10;;
19778;SDS011;10049;59.306;18.090;2023-04-25T05:21:51;1.13;;;1.03;;
19778;SDS011;10049;59.306;18.090;2023-04-25T05:24:20;1.43;;;0.80;;
19778;SDS011;10049;59.306;18.090;2023-04-25T05:26:48;0.82;;;0.75;;
19778;SDS011;10049;59.306;18.090;2023-04-25T05:29:15;1.45;;;0.90;;
19778;SDS011;10049;59.306;18.090;2023-04-25T05:31:43;0.93;;;0.68;;
19778;SDS011;10049;59.306;18.090;2023-04-25T05:34:12;1.10;;;0.90;;
19778;SDS011;10049;59.306;18.090;2023-04-25T05:36:41;1.33;;;0.90;;
19778;SDS011;10049;59.306;18.090;2023-04-25T05:39:09;0.82;;;0.65;;
19778;SDS011;10049;59.306;18.090;2023-04-25T05:41:38;0.28;;;0.28;;
19778;SDS011;10049;59.306;18.090;2023-04-25T05:44:06;1.30;;;1.03;;
19778;SDS011;10049;59.306;18.090;2023-04-25T05:46:33;1.08;;;0.85;;
19778;SDS011;10049;59.306;18.090;2023-04-25T05:49:01;0.73;;;0.73;;
19778;SDS011;10049;59.306;18.090;2023-04-25T05:51:28;0.30;;;0.30;;
19778;SDS011;10049;59.306;18.090;2023-04-25T05:53:56;2.13;;;1.10;;
19778;SDS011;10049;59.306;18.090;2023-04-25T05:56:24;1.20;;;0.90;;
19778;SDS011;10049;59.306;18.090;2023-04-25T05:58:53;1.30;;;1.02;;
19778;SDS011;10049;59.306;18.090;2023-04-25T06:01:20;1.35;;;0.60;;
19778;SDS011;10049;59.306;18.090;2023-04-25T06:03:47;1.05;;;0.85;;
19778;SDS011;10049;59.306;18.090;2023-04-25T06:06:16;2.97;;;0.98;;
19778;SDS011;10049;59.306;18.090;2023-04-25T06:08:44;0.95;;;0.80;;
19778;SDS011;10049;59.306;18.090;2023-04-25T06:11:11;2.13;;;0.88;;
19778;SDS011;10049;59.306;18.090;2023-04-25T06:13:38;1.00;;;0.80;;
19778;SDS011;10049;59.306;18.090;2023-04-25T06:16:08;1.77;;;0.90;;
19778;SDS011;10049;59.306;18.090;2023-04-25T06:18:36;1.00;;;0.90;;
19778;SDS011;10049;59.306;18.090;2023-04-25T06:21:04;1.75;;;1.08;;
19778;SDS011;10049;59.306;18.090;2023-04-25T06:23:31;2.58;;;0.93;;
19778;SDS011;10049;59.306;18.090;2023-04-25T06:25:59;1.15;;;1.02;;
19778;SDS011;10049;59.306;18.090;2023-04-25T06:28:26;1.00;;;0.80;;
19778;SDS011;10049;59.306;18.090;2023-04-25T06:30:54;1.13;;;1.00;;
19778;SDS011;10049;59.306;18.090;2023-04-25T06:33:23;1.88;;;1.20;;
19778;SDS011;10049;59.306;18.090;2023-04-25T06:35:51;1.02;;;0.82;;
19778;SDS011;10049;59.306;18.090;2023-04-25T06:38:19;1.20;;;1.10;;
19778;SDS011;10049;59.306;18.090;2023-04-25T06:40:47;1.00;;;0.70;;
19778;SDS011;10049;59.306;18.090;2023-04-25T06:43:20;1.83;;;0.80;;
19778;SDS011;10049;59.306;18.090;2023-04-25T06:45:48;0.38;;;0.38;;
19778;SDS011;10049;59.306;18.090;2023-04-25T06:48:16;2.13;;;1.10;;
19778;SDS011;10049;59.306;18.090;2023-04-25T06:50:45;0.88;;;0.80;;
19778;SDS011;10049;59.306;18.090;2023-04-25T06:53:14;0.70;;;0.70;;
19778;SDS011;10049;59.306;18.090;2023-04-25T06:55:42;0.80;;;0.80;;
19778;SDS011;10049;59.306;18.090;2023-04-25T06:58:10;1.15;;;1.00;;
19778;SDS011;10049;59.306;18.090;2023-04-25T07:00:37;1.40;;;1.00;;
19778;SDS011;10049;59.306;18.090;2023-04-25T07:03:05;0.63;;;0.57;;
19778;SDS011;10049;59.306;18.090;2023-04-25T07:05:33;1.15;;;0.80;;
19778;SDS011;10049;59.306;18.090;2023-04-25T07:08:02;2.38;;;1.08;;
19778;SDS011;10049;59.306;18.090;2023-04-25T07:10:30;1.25;;;1.00;;
19778;SDS011;10049;59.306;18.090;2023-04-25T07:12:58;1.00;;;0.90;;
19778;SDS011;10049;59.306;18.090;2023-04-25T07:15:30;1.10;;;1.00;;
19778;SDS011;10049;59.306;18.090;2023-04-25T07:17:58;1.80;;;1.13;;
19778;SDS011;10049;59.306;18.090;2023-04-25T07:20:26;1.95;;;1.00;;
19778;SDS011;10049;59.306;18.090;2023-04-25T07:22:56;1.50;;;1.00;;
19778;SDS011;10049;59.306;18.090;2023-04-25T07:25:25;1.70;;;1.27;;
19778;SDS011;10049;59.306;18.090;2023-04-25T07:27:52;1.33;;;1.20;;
19778;SDS011;10049;59.306;18.090;2023-04-25T07:30:20;1.10;;;1.00;;
19778;SDS011;10049;59.306;18.090;2023-04-25T07:32:47;1.20;;;1.00;;
19778;SDS011;10049;59.306;18.090;2023-04-25T07:35:15;2.25;;;1.30;;
19778;SDS011;10049;59.306;18.090;2023-04-25T07:37:43;1.30;;;1.20;;
19778;SDS011;10049;59.306;18.090;2023-04-25T07:40:11;1.00;;;0.95;;
19778;SDS011;10049;59.306;18.090;2023-04-25T07:42:42;1.90;;;1.15;;
19778;SDS011;10049;59.306;18.090;2023-04-25T07:45:10;1.70;;;1.20;;
19778;SDS011;10049;59.306;18.090;2023-04-25T07:47:38;1.83;;;1.40;;
19778;SDS011;10049;59.306;18.090;2023-04-25T07:50:06;2.42;;;1.17;;
19778;SDS011;10049;59.306;18.090;2023-04-25T07:52:35;1.40;;;1.15;;
19778;SDS011;10049;59.306;18.090;2023-04-25T07:55:03;3.50;;;1.30;;
19778;SDS011;10049;59.306;18.090;2023-04-25T07:57:30;4.53;;;1.60;;
19778;SDS011;10049;59.306;18.090;2023-04-25T07:59:59;1.90;;;1.40;;
19778;SDS011;10049;59.306;18.090;2023-04-25T08:02:28;1.92;;;1.40;;
19778;SDS011;10049;59.306;18.090;2023-04-25T08:04:56;2.03;;;1.23;;
19778;SDS011;10049;59.306;18.090;2023-04-25T08:07:23;1.60;;;1.50;;
19778;SDS011;10049;59.306;18.090;2023-04-25T08:09:51;4.07;;;1.60;;
19778;SDS011;10049;59.306;18.090;2023-04-25T08:12:19;4.25;;;1.35;;
19778;SDS011;10049;59.306;18.090;2023-04-25T08:14:46;2.65;;;1.58;;
19778;SDS011;10049;59.306;18.090;2023-04-25T08:17:21;1.90;;;1.50;;
19778;SDS011;10049;59.306;18.090;2023-04-25T08:19:49;1.42;;;1.20;;
19778;SDS011;10049;59.306;18.090;2023-04-25T08:22:16;1.83;;;1.20;;
19778;SDS011;10049;59.306;18.090;2023-04-25T08:24:44;2.78;;;1.35;;
19778;SDS011;10049;59.306;18.090;2023-04-25T08:27:11;1.70;;;1.30;;
19778;SDS011;10049;59.306;18.090;2023-04-25T08:29:39;2.60;;;1.50;;
19778;SDS011;10049;59.306;18.090;2023-04-25T08:32:22;2.47;;;1.52;;
19778;SDS011;10049;59.306;18.090;2023-04-25T08:34:49;1.63;;;1.38;;
19778;SDS011;10049;59.306;18.090;2023-04-25T08:37:19;1.55;;;1.23;;
19778;SDS011;10049;59.306;18.090;2023-04-25T08:39:46;1.92;;;1.27;;
19778;SDS011;10049;59.306;18.090;2023-04-25T08:42:17;2.85;;;1.48;;
19778;SDS011;10049;59.306;18.090;2023-04-25T08:44:45;1.40;;;1.30;;
19778;SDS011;10049;59.306;18.090;2023-04-25T08:47:13;3.25;;;1.60;;
19778;SDS011;10049;59.306;18.090;2023-04-25T08:49:48;2.03;;;1.30;;
19778;SDS011;10049;59.306;18.090;2023-04-25T08:52:17;2.45;;;1.65;;
19778;SDS011;10049;59.306;18.090;2023-04-25T08:54:49;5.45;;;1.77;;
19778;SDS011;10049;59.306;18.090;2023-04-25T08:57:18;2.65;;;2.00;;
19778;SDS011;10049;59.306;18.090;2023-04-25T08:59:46;2.25;;;1.75;;
19778;SDS011;10049;59.306;18.090;2023-04-25T09:02:14;1.70;;;1.60;;
19778;SDS011;10049;59.306;18.090;2023-04-25T09:04:43;2.58;;;2.10;;
19778;SDS011;10049;59.306;18.090;2023-04-25T09:07:13;4.57;;;2.40;;
19778;SDS011;10049;59.306;18.090;2023-04-25T09:09:45;3.40;;;2.53;;
19778;SDS011;10049;59.306;18.090;2023-04-25T09:12:12;5.13;;;2.47;;
19778;SDS011;10049;59.306;18.090;2023-04-25T09:14:41;2.47;;;2.28;;
19778;SDS011;10049;59.306;18.090;2023-04-25T09:17:09;2.88;;;2.42;;
19778;SDS011;10049;59.306;18.090;2023-04-25T09:19:37;2.58;;;2.10;;
19778;SDS011;10049;59.306;18.090;2023-04-25T09:22:05;4.10;;;2.65;;
19778;SDS011;10049;59.306;18.090;2023-04-25T09:24:34;3.13;;;1.95;;
19778;SDS011;10049;59.306;18.090;2023-04-25T09:27:03;2.08;;;1.83;;
19778;SDS011;10049;59.306;18.090;2023-04-25T09:29:31;1.65;;;1.50;;
19778;SDS011;10049;59.306;18.090;2023-04-25T09:32:11;1.90;;;1.70;;
19778;SDS011;10049;59.306;18.090;2023-04-25T09:34:40;1.90;;;1.63;;
19778;SDS011;10049;59.306;18.090;2023-04-25T09:37:09;2.67;;;1.83;;
19778;SDS011;10049;59.306;18.090;2023-04-25T09:39:38;3.85;;;1.88;;
19778;SDS011;10049;59.306;18.090;2023-04-25T09:42:06;2.35;;;1.95;;
19778;SDS011;10049;59.306;18.090;2023-04-25T09:44:33;2.45;;;1.70;;
19778;SDS011;10049;59.306;18.090;2023-04-25T09:47:01;1.70;;;1.60;;
19778;SDS011;10049;59.306;18.090;2023-04-25T09:49:28;1.80;;;1.50;;
19778;SDS011;10049;59.306;18.090;2023-04-25T09:51:56;2.05;;;1.67;;
19778;SDS011;10049;59.306;18.090;2023-04-25T09:54:25;2.00;;;1.50;;
19778;SDS011;10049;59.306;18.090;2023-04-25T09:56:53;2.40;;;1.75;;
19778;SDS011;10049;59.306;18.090;2023-04-25T09:59:21;1.80;;;1.50;;
19778;SDS011;10049;59.306;18.090;2023-04-25T10:01:49;1.70;;;1.60;;
19778;SDS011;10049;59.306;18.090;2023-04-25T10:04:18;2.15;;;1.90;;
19778;SDS011;10049;59.306;18.090;2023-04-25T10:06:48;1.95;;;1.63;;
19778;SDS011;10049;59.306;18.090;2023-04-25T10:09:18;3.70;;;2.00;;
19778;SDS011;10049;59.306;18.090;2023-04-25T10:11:47;1.60;;;1.50;;
19778;SDS011;10049;59.306;18.090;2023-04-25T10:14:16;2.08;;;1.50;;
19778;SDS011;10049;59.306;18.090;2023-04-25T10:16:44;1.88;;;1.40;;
19778;SDS011;10049;59.306;18.090;2023-04-25T10:19:12;2.20;;;1.90;;
19778;SDS011;10049;59.306;18.090;2023-04-25T10:21:52;1.65;;;1.50;;
19778;SDS011;10049;59.306;18.090;2023-04-25T10:24:22;2.08;;;1.80;;
19778;SDS011;10049;59.306;18.090;2023-04-25T10:26:50;1.98;;;1.60;;
19778;SDS011;10049;59.306;18.090;2023-04-25T10:29:32;2.75;;;1.50;;
19778;SDS011;10049;59.306;18.090;2023-04-25T10:31:59;3.85;;;1.40;;
19778;SDS011;10049;59.306;18.090;2023-04-25T10:34:37;1.45;;;1.35;;
19778;SDS011;10049;59.306;18.090;2023-04-25T10:37:08;2.70;;;1.60;;
19778;SDS011;10049;59.306;18.090;2023-04-25T10:39:36;2.13;;;1.75;;
19778;SDS011;10049;59.306;18.090;2023-04-25T10:42:05;1.70;;;1.60;;
19778;SDS011;10049;59.306;18.090;2023-04-25T10:44:36;1.48;;;1.38;;
19778;SDS011;10049;59.306;18.090;2023-04-25T10:47:06;1.48;;;1.30;;
19778;SDS011;10049;59.306;18.090;2023-04-25T10:49:36;1.50;;;1.40;;
19778;SDS011;10049;59.306;18.090;2023-04-25T10:52:13;1.40;;;1.30;;
19778;SDS011;10049;59.306;18.090;2023-04-25T10:54:42;2.58;;;1.27;;
19778;SDS011;10049;59.306;18.090;2023-04-25T10:57:32;2.20;;;1.30;;
19778;SDS011;10049;59.306;18.090;2023-04-25T11:00:04;3.67;;;1.27;;
19778;SDS011;10049;59.306;18.090;2023-04-25T11:02:36;1.40;;;1.30;;
19778;SDS011;10049;59.306;18.090;2023-04-25T11:05:04;2.95;;;1.50;;
19778;SDS011;10049;59.306;18.090;2023-04-25T11:07:34;2.58;;;1.30;;
19778;SDS011;10049;59.306;18.090;2023-04-25T11:10:02;1.17;;;1.10;;
19778;SDS011;10049;59.306;18.090;2023-04-25T11:12:30;3.38;;;1.42;;
19778;SDS011;10049;59.306;18.090;2023-04-25T11:14:59;1.98;;;1.27;;
19778;SDS011;10049;59.306;18.090;2023-04-25T11:17:29;3.15;;;1.23;;
19778;SDS011;10049;59.306;18.090;2023-04-25T11:19:58;3.60;;;1.38;;
19778;SDS011;10049;59.306;18.090;2023-04-25T11:22:26;1.25;;;1.05;;
19778;SDS011;10049;59.306;18.090;2023-04-25T11:24:55;1.05;;;1.00;;
19778;SDS011;10049;59.306;18.090;2023-04-25T11:27:22;11.68;;;1.63;;
19778;SDS011;10049;59.306;18.090;2023-04-25T11:29:51;1.58;;;1.20;;
19778;SDS011;10049;59.306;18.090;2023-04-25T11:32:20;2.45;;;1.23;;
19778;SDS011;10049;59.306;18.090;2023-04-25T11:34:52;5.10;;;1.50;;
19778;SDS011;10049;59.306;18.090;2023-04-25T11:37:19;1.95;;;1.30;;
19778;SDS011;10049;59.306;18.090;2023-04-25T11:39:47;2.28;;;1.40;;
19778;SDS011;10049;59.306;18.090;2023-04-25T11:42:16;3.63;;;1.40;;
19778;SDS011;10049;59.306;18.090;2023-04-25T11:44:45;2.25;;;1.40;;
19778;SDS011;10049;59.306;18.090;2023-04-25T11:47:13;1.42;;;1.33;;
19778;SDS011;10049;59.306;18.090;2023-04-25T11:49:41;1.95;;;1.65;;
19778;SDS011;10049;59.306;18.090;2023-04-25T11:52:10;4.00;;;1.50;;
19778;SDS011;10049;59.306;18.090;2023-04-25T11:54:37;3.38;;;1.30;;
19778;SDS011;10049;59.306;18.090;2023-04-25T11:57:05;1.55;;;1.45;;
19778;SDS011;10049;59.306;18.090;2023-04-25T11:59:35;1.40;;;1.30;;
19778;SDS011;10049;59.306;18.090;2023-04-25T12:02:02;2.28;;;1.30;;
19778;SDS011;10049;59.306;18.090;2023-04-25T12:04:32;2.15;;;1.40;;
19778;SDS011;10049;59.306;18.090;2023-04-25T12:07:00;1.67;;;1.48;;
19778;SDS011;10049;59.306;18.090;2023-04-25T12:09:30;1.75;;;1.40;;
19778;SDS011;10049;59.306;18.090;2023-04-25T12:11:59;1.80;;;1.42;;
19778;SDS011;10049;59.306;18.090;2023-04-25T12:14:31;4.97;;;1.70;;
19778;SDS011;10049;59.306;18.090;2023-04-25T12:16:59;2.97;;;1.45;;
19778;SDS011;10049;59.306;18.090;2023-04-25T12:19:31;1.40;;;1.27;;
19778;SDS011;10049;59.306;18.090;2023-04-25T12:22:00;1.40;;;1.30;;
19778;SDS011;10049;59.306;18.090;2023-04-25T12:24:32;3.35;;;1.40;;
19778;SDS011;10049;59.306;18.090;2023-04-25T12:27:01;8.48;;;1.70;;
19778;SDS011;10049;59.306;18.090;2023-04-25T12:29:32;4.55;;;1.73;;
19778;SDS011;10049;59.306;18.090;2023-04-25T12:31:59;2.05;;;1.45;;
19778;SDS011;10049;59.306;18.090;2023-04-25T12:34:28;1.75;;;1.58;;
19778;SDS011;10049;59.306;18.090;2023-04-25T12:36:57;20.17;;;2.30;;
19778;SDS011;10049;59.306;18.090;2023-04-25T12:39:27;6.53;;;1.60;;
19778;SDS011;10049;59.306;18.090;2023-04-25T12:41:56;4.07;;;1.50;;
19778;SDS011;10049;59.306;18.090;2023-04-25T12:44:24;2.47;;;1.60;;
19778;SDS011;10049;59.306;18.090;2023-04-25T12:46:54;1.70;;;1.50;;
19778;SDS011;10049;59.306;18.090;2023-04-25T12:49:21;1.90;;;1.60;;
19778;SDS011;10049;59.306;18.090;2023-04-25T12:51:49;5.70;;;1.83;;
19778;SDS011;10049;59.306;18.090;2023-04-25T12:54:16;3.38;;;1.80;;
19778;SDS011;10049;59.306;18.090;2023-04-25T12:56:44;1.60;;;1.40;;
19778;SDS011;10049;59.306;18.090;2023-04-25T12:59:13;4.25;;;1.58;;
19778;SDS011;10049;59.306;18.090;2023-04-25T13:01:40;4.05;;;1.63;;
19778;SDS011;10049;59.306;18.090;2023-04-25T13:04:09;2.13;;;1.45;;
19778;SDS011;10049;59.306;18.090;2023-04-25T13:06:36;5.10;;;1.73;;
19778;SDS011;10049;59.306;18.090;2023-04-25T13:09:04;2.40;;;1.58;;
19778;SDS011;10049;59.306;18.090;2023-04-25T13:11:31;6.30;;;1.50;;
19778;SDS011;10049;59.306;18.090;2023-04-25T13:14:01;1.65;;;1.35;;
19778;SDS011;10049;59.306;18.090;2023-04-25T13:16:30;1.45;;;1.35;;
19778;SDS011;10049;59.306;18.090;2023-04-25T13:18:57;1.33;;;1.20;;
19778;SDS011;10049;59.306;18.090;2023-04-25T13:21:25;3.78;;;1.38;;
19778;SDS011;10049;59.306;18.090;2023-04-25T13:23:56;1.85;;;1.30;;
19778;SDS011;10049;59.306;18.090;2023-04-25T13:26:23;2.90;;;1.50;;
19778;SDS011;10049;59.306;18.090;2023-04-25T13:28:51;8.25;;;1.70;;
19778;SDS011;10049;59.306;18.090;2023-04-25T13:31:19;2.42;;;1.40;;
19778;SDS011;10049;59.306;18.090;2023-04-25T13:33:49;8.00;;;1.80;;
19778;SDS011;10049;59.306;18.090;2023-04-25T13:36:16;10.45;;;1.90;;
19778;SDS011;10049;59.306;18.090;2023-04-25T13:38:44;1.50;;;1.38;;
19778;SDS011;10049;59.306;18.090;2023-04-25T13:41:12;1.63;;;1.52;;
19778;SDS011;10049;59.306;18.090;2023-04-25T13:43:43;12.02;;;1.75;;
19778;SDS011;10049;59.306;18.090;2023-04-25T13:46:12;1.50;;;1.20;;
19778;SDS011;10049;59.306;18.090;2023-04-25T13:48:40;1.70;;;1.60;;
19778;SDS011;10049;59.306;18.090;2023-04-25T13:51:14;11.32;;;1.52;;
19778;SDS011;10049;59.306;18.090;2023-04-25T13:53:42;4.25;;;1.20;;
19778;SDS011;10049;59.306;18.090;2023-04-25T13:56:10;2.65;;;1.80;;
19778;SDS011;10049;59.306;18.090;2023-04-25T13:58:38;1.48;;;1.30;;
19778;SDS011;10049;59.306;18.090;2023-04-25T14:01:06;4.15;;;1.50;;
19778;SDS011;10049;59.306;18.090;2023-04-25T14:03:33;5.03;;;1.70;;
19778;SDS011;10049;59.306;18.090;2023-04-25T14:06:01;3.03;;;1.55;;
19778;SDS011;10049;59.306;18.090;2023-04-25T14:08:31;2.60;;;1.75;;
19778;SDS011;10049;59.306;18.090;2023-04-25T14:10:58;2.65;;;1.95;;
19778;SDS011;10049;59.306;18.090;2023-04-25T14:13:26;3.92;;;1.42;;
19778;SDS011;10049;59.306;18.090;2023-04-25T14:15:53;2.97;;;1.95;;
19778;SDS011;10049;59.306;18.090;2023-04-25T14:18:20;5.03;;;2.13;;
19778;SDS011;10049;59.306;18.090;2023-04-25T14:20:48;2.05;;;1.60;;
19778;SDS011;10049;59.306;18.090;2023-04-25T14:23:18;4.53;;;1.60;;
19778;SDS011;10049;59.306;18.090;2023-04-25T14:25:47;1.90;;;1.67;;
19778;SDS011;10049;59.306;18.090;2023-04-25T14:28:15;4.78;;;1.73;;
19778;SDS011;10049;59.306;18.090;2023-04-25T14:30:42;4.50;;;1.80;;
19778;SDS011;10049;59.306;18.090;2023-04-25T14:33:10;2.60;;;1.80;;
19778;SDS011;10049;59.306;18.090;2023-04-25T14:35:39;2.45;;;1.90;;
19778;SDS011;10049;59.306;18.090;2023-04-25T14:38:06;2.53;;;1.52;;
19778;SDS011;10049;59.306;18.090;2023-04-25T14:40:34;1.90;;;1.60;;